Time;durP1;ratioP1;P1;durP2;ratioP2;P2;SDS_P1;SDS_P2;PMS_P1;PMS_P2;Temp;Humidity;BMP_temperature;BMP_pressure;BME280_temperature;BME280_humidity;BME280_pressure;Samples;Min_cycle;Max_cycle;Signal;HPM_P1;HPM_P2
2021/07/05 00:02:49;;;;;;;6.88;4.45;;;;;;;;;;6089502;29;21411;-73
2021/07/05 00:05:52;;;;;;;5.47;4.00;;;;;;;;;;6086688;29;20127;-73
2021/07/05 00:08:53;;;;;;;5.32;4.22;;;;;;;;;;6090459;29;20052;-75
2021/07/05 00:11:55;;;;;;;4.68;4.13;;;;;;;;;;6094878;29;20139;-77
2021/07/05 00:14:57;;;;;;;4.80;3.97;;;;;;;;;;6090427;29;20138;-73
2021/07/05 00:18:00;;;;;;;5.32;4.10;;;;;;;;;;6089445;29;20187;-72
2021/07/05 00:21:03;;;;;;;;;;;;;;;;;;6093345;29;20044;-74
2021/07/05 00:24:05;;;;;;;6.13;4.32;;;;;;;;;;6090104;29;19930;-73
2021/07/05 00:27:06;;;;;;;5.80;4.25;;;;;;;;;;6090075;29;20555;-73
2021/07/05 00:30:08;;;;;;;6.53;4.40;;;;;;;;;;6092507;29;20131;-73
2021/07/05 00:33:10;;;;;;;5.80;3.67;;;;;;;;;;6087306;29;20138;-73
2021/07/05 00:36:13;;;;;;;5.78;3.97;;;;;;;;;;6091073;29;20134;-73
2021/07/05 00:39:16;;;;;;;5.35;4.28;;;;;;;;;;6090481;29;20669;-74
2021/07/05 00:42:18;;;;;;;4.38;3.67;;;;;;;;;;6093217;29;20080;-72
2021/07/05 00:45:23;;;;;;;5.50;3.97;;;;;;;;;;6092554;29;20143;-73
2021/07/05 00:48:25;;;;;;;4.70;3.65;;;;;;;;;;6086130;29;20095;-73
2021/07/05 00:51:28;;;;;;;5.72;4.20;;;;;;;;;;6090097;29;20217;-77
2021/07/05 00:54:30;;;;;;;6.72;4.00;;;;;;;;;;6097727;29;20041;-78
2021/07/05 00:57:31;;;;;;;5.40;4.20;;;;;;;;;;6091327;29;20130;-73
2021/07/05 01:00:33;;;;;;;5.55;4.88;;;;;;;;;;6087319;29;20155;-76
2021/07/05 01:03:35;;;;;;;7.85;4.53;;;;;;;;;;6087286;29;20126;-73
2021/07/05 01:06:38;;;;;;;5.43;3.92;;;;;;;;;;6089536;29;20040;-74
2021/07/05 01:09:41;;;;;;;4.82;3.90;;;;;;;;;;6085239;29;20147;-76
2021/07/05 01:12:43;;;;;;;4.45;3.90;;;;;;;;;;6087464;29;20055;-74
2021/07/05 01:15:45;;;;;;;4.35;3.95;;;;;;;;;;6087693;29;20147;-73
2021/07/05 01:18:47;;;;;;;6.15;3.88;;;;;;;;;;6089038;29;20145;-78
2021/07/05 01:21:50;;;;;;;4.20;3.78;;;;;;;;;;6087799;29;20056;-74
2021/07/05 01:24:52;;;;;;;4.78;3.83;;;;;;;;;;6088699;29;20139;-74
2021/07/05 01:27:54;;;;;;;6.15;3.85;;;;;;;;;;6089216;29;20126;-73
2021/07/05 01:30:56;;;;;;;6.40;4.05;;;;;;;;;;6084815;29;20568;-75
2021/07/05 01:33:58;;;;;;;4.05;3.47;;;;;;;;;;6088923;29;20135;-74
2021/07/05 01:37:01;;;;;;;7.03;3.28;;;;;;;;;;6090933;29;20183;-74
2021/07/05 01:40:05;;;;;;;4.55;3.10;;;;;;;;;;6092087;29;20066;-73
2021/07/05 01:43:07;;;;;;;4.22;3.83;;;;;;;;;;6091842;29;20134;-76
2021/07/05 01:46:08;;;;;;;4.35;3.78;;;;;;;;;;6088837;29;20052;-73
2021/07/05 01:49:10;;;;;;;4.50;4.10;;;;;;;;;;6088391;29;20099;-74
2021/07/05 01:52:14;;;;;;;5.03;4.20;;;;;;;;;;6082660;29;20051;-74
2021/07/05 01:55:16;;;;;;;5.88;4.28;;;;;;;;;;6092127;29;20194;-77
2021/07/05 01:58:18;;;;;;;5.57;3.50;;;;;;;;;;6091273;29;20211;-76
2021/07/05 02:01:20;;;;;;;3.95;3.55;;;;;;;;;;6098417;29;20127;-73
2021/07/05 02:04:25;;;;;;;7.55;3.83;;;;;;;;;;6102008;29;20059;-76
2021/07/05 02:07:29;;;;;;;4.15;3.67;;;;;;;;;;6088085;29;20525;-73
2021/07/05 02:10:33;;;;;;;5.05;3.80;;;;;;;;;;6106191;29;20079;-73
2021/07/05 02:13:39;;;;;;;6.53;3.92;;;;;;;;;;6099362;29;20070;-73
2021/07/05 02:16:40;;;;;;;4.03;3.45;;;;;;;;;;6094550;29;20064;-73
2021/07/05 02:19:42;;;;;;;5.32;3.83;;;;;;;;;;6098074;29;20531;-73
2021/07/05 02:22:46;;;;;;;4.57;3.90;;;;;;;;;;6092146;29;20116;-73
2021/07/05 02:25:47;;;;;;;;;;;;;;;;;;6096739;29;20063;-73
2021/07/05 02:28:49;;;;;;;4.72;3.88;;;;;;;;;;6088087;29;20497;-73
2021/07/05 02:31:51;;;;;;;7.53;3.85;;;;;;;;;;6100245;29;20135;-73
2021/07/05 02:34:52;;;;;;;8.00;3.67;;;;;;;;;;6103088;29;20152;-73
2021/07/05 02:37:56;;;;;;;7.32;4.28;;;;;;;;;;6088336;29;20082;-73
2021/07/05 02:40:59;;;;;;;6.13;3.88;;;;;;;;;;6105021;29;20589;-73
2021/07/05 02:44:00;;;;;;;4.38;3.97;;;;;;;;;;6097668;29;20583;-73
2021/07/05 02:47:02;;;;;;;5.28;3.65;;;;;;;;;;6110832;29;20043;-73
2021/07/05 02:50:05;;;;;;;3.97;3.30;;;;;;;;;;6100559;29;20084;-73
2021/07/05 02:53:09;;;;;;;5.95;3.60;;;;;;;;;;6102693;29;20131;-73
2021/07/05 02:56:11;;;;;;;4.93;3.40;;;;;;;;;;6086500;29;20131;-73
2021/07/05 02:59:13;;;;;;;4.72;3.67;;;;;;;;;;6096062;29;20131;-76
2021/07/05 03:02:15;;;;;;;4.78;3.58;;;;;;;;;;6103707;29;20130;-73
2021/07/05 03:05:18;;;;;;;6.25;3.90;;;;;;;;;;6100911;29;20071;-73
2021/07/05 03:08:21;;;;;;;5.38;3.80;;;;;;;;;;6107522;29;20527;-74
2021/07/05 03:11:23;;;;;;;5.50;4.27;;;;;;;;;;6097610;29;20678;-73
2021/07/05 03:14:24;;;;;;;4.90;3.97;;;;;;;;;;6098559;29;20559;-73
2021/07/05 03:17:26;;;;;;;4.53;3.50;;;;;;;;;;6089190;29;20139;-73
2021/07/05 03:20:31;;;;;;;5.20;3.53;;;;;;;;;;6095906;29;20092;-73
2021/07/05 03:23:33;;;;;;;8.00;3.75;;;;;;;;;;6092006;29;20123;-73
2021/07/05 03:26:35;;;;;;;6.30;3.50;;;;;;;;;;6096779;29;20040;-73
2021/07/05 03:29:37;;;;;;;6.80;3.65;;;;;;;;;;6090929;29;20062;-73
2021/07/05 03:32:41;;;;;;;6.65;3.78;;;;;;;;;;6106001;29;20079;-73
2021/07/05 03:35:44;;;;;;;8.55;3.72;;;;;;;;;;6098155;29;20564;-73
2021/07/05 03:38:47;;;;;;;4.78;3.00;;;;;;;;;;6093247;29;20059;-73
2021/07/05 03:41:49;;;;;;;3.67;3.20;;;;;;;;;;6092672;29;20271;-74
2021/07/05 03:44:50;;;;;;;5.90;3.30;;;;;;;;;;6092911;29;20139;-73
2021/07/05 03:47:52;;;;;;;5.55;3.13;;;;;;;;;;6096872;29;20127;-73
2021/07/05 03:50:54;;;;;;;4.18;3.20;;;;;;;;;;6093884;29;20163;-73
2021/07/05 03:53:57;;;;;;;3.70;2.65;;;;;;;;;;6092960;29;20044;-73
2021/07/05 03:56:58;;;;;;;4.40;2.97;;;;;;;;;;6092121;29;20083;-75
2021/07/05 04:00:00;;;;;;;4.22;2.80;;;;;;;;;;6096736;29;20044;-72
2021/07/05 04:03:02;;;;;;;3.40;2.80;;;;;;;;;;6092387;29;20048;-73
2021/07/05 04:06:04;;;;;;;3.83;2.60;;;;;;;;;;6088599;29;20048;-71
2021/07/05 04:09:07;;;;;;;4.13;2.72;;;;;;;;;;6093887;29;20151;-73
2021/07/05 04:12:10;;;;;;;3.17;2.88;;;;;;;;;;6091500;29;20052;-71
2021/07/05 04:15:13;;;;;;;2.70;2.50;;;;;;;;;;6093319;29;20084;-74
2021/07/05 04:18:14;;;;;;;4.18;2.40;;;;;;;;;;6092139;29;20063;-74
2021/07/05 04:21:16;;;;;;;3.72;2.60;;;;;;;;;;6092856;29;20134;-71
2021/07/05 04:24:19;;;;;;;6.90;2.78;;;;;;;;;;6093095;29;20200;-73
2021/07/05 04:27:20;;;;;;;3.40;2.30;;;;;;;;;;6090435;29;20052;-73
2021/07/05 04:30:22;;;;;;;4.70;2.72;;;;;;;;;;6092451;29;20091;-74
2021/07/05 04:33:24;;;;;;;5.45;2.88;;;;;;;;;;6088657;29;20081;-74
2021/07/05 04:36:26;;;;;;;4.82;3.00;;;;;;;;;;6088989;29;20100;-75
2021/07/05 04:39:29;;;;;;;4.90;3.30;;;;;;;;;;6095677;29;20048;-73
2021/07/05 04:42:30;;;;;;;6.68;3.85;;;;;;;;;;6088197;29;20408;-72
2021/07/05 04:45:33;;;;;;;6.18;3.22;;;;;;;;;;6092407;29;20187;-73
2021/07/05 04:48:38;;;;;;;5.73;3.23;;;;;;;;;;6092354;29;20055;-72
2021/07/05 04:51:39;;;;;;;5.18;3.45;;;;;;;;;;6088023;29;20532;-72
2021/07/05 04:54:42;;;;;;;5.53;3.95;;;;;;;;;;6088025;29;20153;-72
2021/07/05 04:57:45;;;;;;;6.13;4.03;;;;;;;;;;6094521;29;20075;-73
2021/07/05 05:00:46;;;;;;;7.80;3.90;;;;;;;;;;6096123;29;20111;-73
2021/07/05 05:03:48;;;;;;;3.83;3.10;;;;;;;;;;6087537;29;20135;-72
2021/07/05 05:06:50;;;;;;;6.28;3.15;;;;;;;;;;6091709;29;20404;-72
2021/07/05 05:10:00;;;;;;;4.65;3.00;;;;;;;;;;6084096;29;20120;-75
2021/07/05 05:13:02;;;;;;;5.93;3.30;;;;;;;;;;6088455;29;20174;-76
2021/07/05 05:16:04;;;;;;;9.88;3.53;;;;;;;;;;6095171;29;20044;-73
2021/07/05 05:19:06;;;;;;;4.53;2.90;;;;;;;;;;6088799;29;20115;-76
2021/07/05 05:22:08;;;;;;;3.45;2.72;;;;;;;;;;6088458;29;20138;-73
2021/07/05 05:25:12;;;;;;;6.07;2.95;;;;;;;;;;6090598;29;20051;-74
2021/07/05 05:28:13;;;;;;;4.78;2.92;;;;;;;;;;6086086;29;20051;-73
2021/07/05 05:31:15;;;;;;;4.45;3.13;;;;;;;;;;6087935;29;20180;-73
2021/07/05 05:34:17;;;;;;;5.97;3.20;;;;;;;;;;6087802;29;20036;-71
2021/07/05 05:37:19;;;;;;;5.47;3.05;;;;;;;;;;6085217;29;20208;-72
2021/07/05 05:40:22;;;;;;;9.20;2.72;;;;;;;;;;6092623;29;20187;-73
2021/07/05 05:43:23;;;;;;;3.83;2.95;;;;;;;;;;6088863;29;20056;-72
2021/07/05 05:46:27;;;;;;;8.15;3.08;;;;;;;;;;6091958;29;20048;-71
2021/07/05 05:49:29;;;;;;;4.90;3.60;;;;;;;;;;6087620;29;20060;-71
2021/07/05 05:52:31;;;;;;;4.90;3.92;;;;;;;;;;6092288;29;20052;-72
2021/07/05 05:55:34;;;;;;;4.53;3.60;;;;;;;;;;6093716;29;20075;-71
2021/07/05 05:58:37;;;;;;;4.70;3.63;;;;;;;;;;6093869;29;20142;-72
2021/07/05 06:01:42;;;;;;;4.43;3.88;;;;;;;;;;6087502;29;20055;-72
2021/07/05 06:04:43;;;;;;;9.27;5.03;;;;;;;;;;6089944;29;20147;-72
2021/07/05 06:07:49;;;;;;;4.85;3.97;;;;;;;;;;6098088;29;20120;-72
2021/07/05 06:10:52;;;;;;;7.70;4.07;;;;;;;;;;6091388;29;20056;-72
2021/07/05 06:13:54;;;;;;;4.38;3.78;;;;;;;;;;6084014;29;20062;-72
2021/07/05 06:16:55;;;;;;;6.70;4.70;;;;;;;;;;6091201;29;20416;-71
2021/07/05 06:19:57;;;;;;;4.45;4.05;;;;;;;;;;6091336;29;20575;-72
2021/07/05 06:22:58;;;;;;;9.20;4.78;;;;;;;;;;6093258;29;20126;-72
2021/07/05 06:26:03;;;;;;;5.68;4.53;;;;;;;;;;6087911;29;20239;-70
2021/07/05 06:29:05;;;;;;;7.90;4.35;;;;;;;;;;6088957;29;20142;-71
2021/07/05 06:32:07;;;;;;;8.88;5.38;;;;;;;;;;6084665;29;20112;-70
2021/07/05 06:35:10;;;;;;;9.63;4.70;;;;;;;;;;6091309;29;20131;-70
2021/07/05 06:38:13;;;;;;;5.32;4.40;;;;;;;;;;6090045;29;20048;-70
2021/07/05 06:41:16;;;;;;;5.28;4.50;;;;;;;;;;6085027;29;20119;-70
2021/07/05 06:44:18;;;;;;;5.75;4.15;;;;;;;;;;6087646;29;20738;-73
2021/07/05 06:47:20;;;;;;;7.03;4.80;;;;;;;;;;6083936;29;20055;-73
2021/07/05 06:50:21;;;;;;;7.47;5.38;;;;;;;;;;6097232;29;20629;-74
2021/07/05 06:53:23;;;;;;;6.90;5.30;;;;;;;;;;6091152;29;20170;-73
2021/07/05 06:56:27;;;;;;;7.65;5.28;;;;;;;;;;6086731;29;20056;-73
2021/07/05 06:59:29;;;;;;;5.28;4.20;;;;;;;;;;6089247;29;20500;-74
2021/07/05 07:02:33;;;;;;;9.40;4.43;;;;;;;;;;6087759;29;20131;-75
2021/07/05 07:05:38;;;;;;;5.18;4.03;;;;;;;;;;6084121;29;20516;-73
2021/07/05 07:08:40;;;;;;;5.53;4.22;;;;;;;;;;6078896;29;20493;-73
2021/07/05 07:11:43;;;;;;;10.35;4.50;;;;;;;;;;6088759;29;20114;-72
2021/07/05 07:14:45;;;;;;;5.90;4.20;;;;;;;;;;6094892;29;20114;-72
2021/07/05 07:17:49;;;;;;;7.15;4.40;;;;;;;;;;6082463;29;20583;-72
2021/07/05 07:20:51;;;;;;;8.90;4.25;;;;;;;;;;6084364;29;20064;-74
2021/07/05 07:23:53;;;;;;;8.45;4.45;;;;;;;;;;6082376;29;20173;-74
2021/07/05 07:26:56;;;;;;;6.57;3.95;;;;;;;;;;6085910;29;20146;-74
2021/07/05 07:29:58;;;;;;;5.57;3.53;;;;;;;;;;6087703;29;20052;-74
2021/07/05 07:32:59;;;;;;;7.25;4.65;;;;;;;;;;6094093;29;20128;-76
2021/07/05 07:36:02;;;;;;;7.65;5.57;;;;;;;;;;6092442;29;20187;-75
2021/07/05 07:39:07;;;;;;;7.50;5.75;;;;;;;;;;6089809;29;20060;-76
2021/07/05 07:42:10;;;;;;;8.45;6.18;;;;;;;;;;6086525;29;20052;-74
2021/07/05 07:45:13;;;;;;;8.32;6.07;;;;;;;;;;6093877;29;20201;-74
2021/07/05 07:48:15;;;;;;;8.45;6.55;;;;;;;;;;6098930;29;20143;-76
2021/07/05 07:51:16;;;;;;;9.40;6.55;;;;;;;;;;6100895;29;20051;-75
2021/07/05 07:54:18;;;;;;;7.72;6.60;;;;;;;;;;6086190;29;20100;-75
2021/07/05 07:57:21;;;;;;;10.10;6.95;;;;;;;;;;6088354;29;20063;-75
2021/07/05 08:00:23;;;;;;;13.93;7.47;;;;;;;;;;6093252;29;20139;-75
2021/07/05 08:03:24;;;;;;;8.93;6.85;;;;;;;;;;6094264;29;20535;-74
2021/07/05 08:06:26;;;;;;;12.00;6.45;;;;;;;;;;6094469;29;20568;-75
2021/07/05 08:09:27;;;;;;;8.55;6.72;;;;;;;;;;6090461;29;20196;-75
2021/07/05 08:12:30;;;;;;;7.78;6.75;;;;;;;;;;6088286;29;20082;-74
2021/07/05 08:15:32;;;;;;;6.68;5.88;;;;;;;;;;6089466;29;20148;-74
2021/07/05 08:18:33;;;;;;;9.23;6.22;;;;;;;;;;6093813;29;20056;-74
2021/07/05 08:21:37;;;;;;;7.68;5.60;;;;;;;;;;6090190;29;20055;-74
2021/07/05 08:24:38;;;;;;;;;;;;;;;;;;6086299;29;20428;-75
2021/07/05 08:27:41;;;;;;;10.23;5.40;;;;;;;;;;6091820;29;19975;-74
2021/07/05 08:30:43;;;;;;;7.88;5.50;;;;;;;;;;6101069;29;20124;-75
2021/07/05 08:33:47;;;;;;;7.65;4.65;;;;;;;;;;6099191;29;20047;-75
2021/07/05 08:36:48;;;;;;;7.03;5.20;;;;;;;;;;6091837;29;20152;-74
2021/07/05 08:39:50;;;;;;;10.55;5.32;;;;;;;;;;6088180;29;20123;-75
2021/07/05 08:42:54;;;;;;;5.82;4.75;;;;;;;;;;6092249;29;20054;-76
2021/07/05 08:45:59;;;;;;;7.53;4.60;;;;;;;;;;6090022;29;20052;-76
2021/07/05 08:49:01;;;;;;;5.13;4.20;;;;;;;;;;6094409;29;20048;-75
2021/07/05 08:52:03;;;;;;;6.15;3.88;;;;;;;;;;6087379;29;20062;-74
2021/07/05 08:55:05;;;;;;;6.45;4.30;;;;;;;;;;6091390;29;20202;-75
2021/07/05 08:58:09;;;;;;;6.20;3.67;;;;;;;;;;6088424;29;20651;-75
2021/07/05 09:01:11;;;;;;;3.92;3.53;;;;;;;;;;6087544;29;20049;-74
2021/07/05 09:04:13;;;;;;;4.43;3.55;;;;;;;;;;6086570;29;20147;-76
2021/07/05 09:07:15;;;;;;;5.75;4.05;;;;;;;;;;6090614;29;20417;-75
2021/07/05 09:10:16;;;;;;;5.57;3.88;;;;;;;;;;6091353;29;20547;-75
2021/07/05 09:13:21;;;;;;;5.85;4.53;;;;;;;;;;6088541;29;20083;-75
2021/07/05 09:16:33;;;;;;;11.65;3.88;;;;;;;;;;6088216;29;20108;-74
2021/07/05 09:19:35;;;;;;;6.38;4.00;;;;;;;;;;6086894;29;20131;-72
2021/07/05 09:22:36;;;;;;;5.05;3.97;;;;;;;;;;6082231;29;20072;-74
2021/07/05 09:25:40;;;;;;;5.35;3.40;;;;;;;;;;6086913;29;20196;-73
2021/07/05 09:28:43;;;;;;;4.63;3.53;;;;;;;;;;6096990;29;20545;-73
2021/07/05 09:31:46;;;;;;;4.45;3.47;;;;;;;;;;6090929;29;20056;-73
2021/07/05 09:34:48;;;;;;;5.18;4.40;;;;;;;;;;6088716;29;20052;-72
2021/07/05 09:37:54;;;;;;;8.45;3.85;;;;;;;;;;6100503;29;20135;-72
2021/07/05 09:40:56;;;;;;;4.65;3.35;;;;;;;;;;6085602;29;20052;-74
2021/07/05 09:44:01;;;;;;;4.88;3.42;;;;;;;;;;6089784;29;20139;-72
2021/07/05 09:47:05;;;;;;;3.85;2.75;;;;;;;;;;6090520;29;20088;-72
2021/07/05 09:50:12;;;;;;;3.83;2.60;;;;;;;;;;6087506;29;20052;-71
2021/07/05 09:53:28;;;;;;;6.82;2.95;;;;;;;;;;6095929;29;20635;-71
2021/07/05 09:56:31;;;;;;;4.65;2.35;;;;;;;;;;6087075;29;20075;-72
2021/07/05 09:59:34;;;;;;;;;;;;;;;;;;6096133;29;20070;-72
2021/07/05 10:02:36;;;;;;;2.50;1.90;;;;;;;;;;6087860;29;20095;-73
2021/07/05 10:05:43;;;;;;;3.30;1.92;;;;;;;;;;6083685;29;20083;-72
2021/07/05 10:08:45;;;;;;;3.17;1.48;;;;;;;;;;6089524;29;20062;-73
2021/07/05 10:11:47;;;;;;;3.53;1.53;;;;;;;;;;6084518;29;20558;-71
2021/07/05 10:14:58;;;;;;;1.90;1.37;;;;;;;;;;6093459;29;20060;-72
2021/07/05 10:18:01;;;;;;;1.77;1.50;;;;;;;;;;6096937;29;20055;-71
2021/07/05 10:21:04;;;;;;;2.03;1.60;;;;;;;;;;6097860;29;20052;-72
2021/07/05 10:24:06;;;;;;;;;;;;;;;;;;6091906;29;20174;-71
2021/07/05 10:27:13;;;;;;;3.03;1.38;;;;;;;;;;6088302;29;19923;-72
2021/07/05 10:30:17;;;;;;;2.88;1.10;;;;;;;;;;6090379;29;20056;-74
2021/07/05 10:33:19;;;;;;;2.28;1.63;;;;;;;;;;6084955;29;20104;-72
2021/07/05 10:36:22;;;;;;;4.03;1.30;;;;;;;;;;6076409;29;20153;-72
2021/07/05 10:39:24;;;;;;;1.77;1.27;;;;;;;;;;6087051;29;20146;-74
2021/07/05 10:42:35;;;;;;;2.50;1.33;;;;;;;;;;6080526;29;20144;-75
2021/07/05 10:45:43;;;;;;;3.45;2.10;;;;;;;;;;6078018;29;20063;-74
2021/07/05 10:48:44;;;;;;;2.08;1.40;;;;;;;;;;6087225;29;20052;-73
2021/07/05 10:51:47;;;;;;;1.40;1.30;;;;;;;;;;6080364;29;20106;-73
2021/07/05 10:54:51;;;;;;;2.00;1.52;;;;;;;;;;6092740;29;20050;-73
2021/07/05 10:57:56;;;;;;;2.88;1.60;;;;;;;;;;6091959;29;20179;-73
2021/07/05 11:01:01;;;;;;;1.77;1.40;;;;;;;;;;6090452;29;20055;-72
2021/07/05 11:04:18;;;;;;;2.17;1.45;;;;;;;;;;6093455;29;20200;-73
2021/07/05 11:07:23;;;;;;;1.77;1.50;;;;;;;;;;6092740;29;20137;-72
2021/07/05 11:10:29;;;;;;;4.82;1.70;;;;;;;;;;6089048;29;20040;-75
2021/07/05 11:13:31;;;;;;;3.25;1.58;;;;;;;;;;6089902;29;20425;-75
2021/07/05 11:16:43;;;;;;;;;;;;;;;;;;6088860;29;20504;-76
2021/07/05 11:19:47;;;;;;;17.95;9.52;;;;;;;;;;6100955;29;19927;-75
2021/07/05 11:22:53;;;;;;;17.92;10.68;;;;;;;;;;6086754;29;20055;-75
2021/07/05 11:26:19;;;;;;;141.05;105.15;;;;;;;;;;6086873;29;20087;-76
2021/07/05 11:29:23;;;;;;;7.47;5.20;;;;;;;;;;6090850;29;20083;-77
2021/07/05 11:32:36;;;;;;;3.10;1.70;;;;;;;;;;6077544;29;20093;-76
2021/07/05 11:35:47;;;;;;;1.67;1.33;;;;;;;;;;6087074;29;20044;-75
2021/07/05 11:39:01;;;;;;;4.50;1.52;;;;;;;;;;6086112;29;20130;-78
2021/07/05 11:42:03;;;;;;;3.05;1.90;;;;;;;;;;6083172;29;20134;-75
2021/07/05 11:45:08;;;;;;;2.10;1.40;;;;;;;;;;6105700;28;20150;-79
2021/07/05 11:48:11;;;;;;;5.43;1.60;;;;;;;;;;6081105;29;20052;-76
2021/07/05 11:51:17;;;;;;;4.55;1.90;;;;;;;;;;6090676;29;20175;-75
2021/07/05 11:54:23;;;;;;;2.63;1.33;;;;;;;;;;6090511;29;20048;-75
2021/07/05 11:57:26;;;;;;;4.20;1.52;;;;;;;;;;6084231;29;20052;-76
2021/07/05 12:00:31;;;;;;;3.05;1.40;;;;;;;;;;6081863;29;20049;-75
2021/07/05 12:03:56;;;;;;;3.55;1.48;;;;;;;;;;6076616;29;20060;-76
2021/07/05 12:06:59;;;;;;;4.78;1.80;;;;;;;;;;6080291;29;20052;-76
2021/07/05 12:10:05;;;;;;;2.20;1.50;;;;;;;;;;6086431;29;20047;-76
2021/07/05 12:13:24;;;;;;;2.45;1.20;;;;;;;;;;6080751;29;20086;-75
2021/07/05 12:16:33;;;;;;;3.40;1.23;;;;;;;;;;6081367;29;20100;-76
2021/07/05 12:19:40;;;;;;;3.45;1.45;;;;;;;;;;6090110;29;20060;-75
2021/07/05 12:22:43;;;;;;;1.60;1.23;;;;;;;;;;6082732;29;20493;-75
2021/07/05 12:25:44;;;;;;;3.35;0.90;;;;;;;;;;6069916;29;20048;-75
2021/07/05 12:29:05;;;;;;;3.10;1.30;;;;;;;;;;6095810;29;20146;-76
2021/07/05 12:32:13;;;;;;;2.47;1.35;;;;;;;;;;6075051;29;20063;-73
2021/07/05 12:35:17;;;;;;;2.75;1.67;;;;;;;;;;6084343;29;20063;-76
2021/07/05 12:38:21;;;;;;;1.33;1.13;;;;;;;;;;6089681;29;20066;-74
2021/07/05 12:41:28;;;;;;;3.28;1.20;;;;;;;;;;6089961;29;20044;-74
2021/07/05 12:44:30;;;;;;;3.83;1.27;;;;;;;;;;6096913;29;20447;-74
2021/07/05 12:47:32;;;;;;;2.47;1.60;;;;;;;;;;6084503;29;20457;-75
2021/07/05 12:50:40;;;;;;;1.25;0.90;;;;;;;;;;6080680;29;20051;-76
2021/07/05 12:53:42;;;;;;;2.90;1.00;;;;;;;;;;6085311;29;21185;-75
2021/07/05 12:56:44;;;;;;;3.85;1.13;;;;;;;;;;6085186;29;20576;-75
2021/07/05 13:00:02;;;;;;;2.70;1.10;;;;;;;;;;6090188;29;20072;-77
2021/07/05 13:03:14;;;;;;;3.85;1.27;;;;;;;;;;6079338;29;20079;-75
2021/07/05 13:06:17;;;;;;;2.45;1.20;;;;;;;;;;6091389;29;20072;-77
2021/07/05 13:09:21;;;;;;;1.10;0.88;;;;;;;;;;6089261;29;20052;-77
2021/07/05 13:12:22;;;;;;;1.83;1.00;;;;;;;;;;6090067;29;20040;-75
2021/07/05 13:15:26;;;;;;;2.78;1.13;;;;;;;;;;6095631;29;20138;-75
2021/07/05 13:18:27;;;;;;;2.50;1.35;;;;;;;;;;6089260;29;20066;-76
2021/07/05 13:21:32;;;;;;;4.13;1.40;;;;;;;;;;6087368;29;20139;-75
2021/07/05 13:24:34;;;;;;;1.88;1.30;;;;;;;;;;6100076;29;20056;-75
2021/07/05 13:27:36;;;;;;;6.35;1.30;;;;;;;;;;6086865;29;20050;-75
2021/07/05 13:30:39;;;;;;;3.63;1.17;;;;;;;;;;6083036;29;20094;-76
2021/07/05 13:33:40;;;;;;;1.98;1.08;;;;;;;;;;6086863;29;20127;-75
2021/07/05 13:36:53;;;;;;;7.15;1.20;;;;;;;;;;6089234;29;20052;-75
2021/07/05 13:39:58;;;;;;;4.97;1.25;;;;;;;;;;6088268;29;20127;-74
2021/07/05 13:43:01;;;;;;;2.70;1.30;;;;;;;;;;6082760;29;20060;-75
2021/07/05 13:46:03;;;;;;;2.75;1.10;;;;;;;;;;6081194;29;20450;-75
2021/07/05 13:49:14;;;;;;;3.83;1.05;;;;;;;;;;6088221;29;20055;-74
2021/07/05 13:52:35;;;;;;;2.97;1.20;;;;;;;;;;6085988;29;20107;-75
2021/07/05 13:55:37;;;;;;;1.20;0.90;;;;;;;;;;6079256;29;20060;-75
2021/07/05 13:58:40;;;;;;;1.95;0.90;;;;;;;;;;6089811;29;20048;-74
2021/07/05 14:01:42;;;;;;;1.73;1.02;;;;;;;;;;6073948;29;20056;-74
2021/07/05 14:04:44;;;;;;;2.28;0.93;;;;;;;;;;6075182;29;20139;-74
2021/07/05 14:07:48;;;;;;;3.00;1.10;;;;;;;;;;6077055;29;20055;-75
2021/07/05 14:10:51;;;;;;;2.95;1.10;;;;;;;;;;6076924;29;20048;-75
2021/07/05 14:13:56;;;;;;;3.40;1.60;;;;;;;;;;6087372;29;20555;-74
2021/07/05 14:16:58;;;;;;;3.60;1.00;;;;;;;;;;6067700;29;20056;-74
2021/07/05 14:20:00;;;;;;;0.80;0.80;;;;;;;;;;6084758;29;20155;-75
2021/07/05 14:23:04;;;;;;;2.67;0.95;;;;;;;;;;6079926;29;20800;-73
2021/07/05 14:26:07;;;;;;;2.60;1.00;;;;;;;;;;6080514;29;20063;-75
2021/07/05 14:29:08;;;;;;;1.92;0.90;;;;;;;;;;6096302;29;20130;-77
2021/07/05 14:32:10;;;;;;;3.83;1.13;;;;;;;;;;6085722;29;20092;-77
2021/07/05 14:35:12;;;;;;;1.10;0.80;;;;;;;;;;6094368;29;20064;-81
2021/07/05 14:38:15;;;;;;;2.45;0.90;;;;;;;;;;6085884;29;20612;-76
2021/07/05 14:41:17;;;;;;;1.67;1.00;;;;;;;;;;6094424;29;20052;-77
2021/07/05 14:44:20;;;;;;;1.63;0.90;;;;;;;;;;6093974;29;20089;-77
2021/07/05 14:47:22;;;;;;;3.88;1.48;;;;;;;;;;6088098;29;20103;-76
2021/07/05 14:50:29;;;;;;;1.35;1.13;;;;;;;;;;6087753;29;20052;-79
2021/07/05 14:53:32;;;;;;;1.85;0.80;;;;;;;;;;6097098;29;20563;-76
2021/07/05 14:56:34;;;;;;;1.10;0.80;;;;;;;;;;6092839;29;20090;-77
2021/07/05 14:59:36;;;;;;;1.52;0.90;;;;;;;;;;6089105;29;20052;-76
2021/07/05 15:02:37;;;;;;;2.45;1.10;;;;;;;;;;6099971;29;20044;-77
2021/07/05 15:05:39;;;;;;;1.23;0.90;;;;;;;;;;6096847;29;20048;-79
2021/07/05 15:08:42;;;;;;;1.65;0.90;;;;;;;;;;6097206;29;20495;-77
2021/07/05 15:11:44;;;;;;;1.83;1.00;;;;;;;;;;6081075;29;20441;-77
2021/07/05 15:14:46;;;;;;;2.03;1.10;;;;;;;;;;6096698;29;20183;-81
2021/07/05 15:17:48;;;;;;;1.77;1.10;;;;;;;;;;6091614;29;20108;-77
2021/07/05 15:20:49;;;;;;;3.80;1.25;;;;;;;;;;6089317;29;20462;-78
2021/07/05 15:23:53;;;;;;;3.60;1.10;;;;;;;;;;6089043;29;20488;-77
2021/07/05 15:26:54;;;;;;;2.15;1.23;;;;;;;;;;6092727;29;20556;-77
2021/07/05 15:29:57;;;;;;;1.70;1.00;;;;;;;;;;6096117;29;20053;-77
2021/07/05 15:32:58;;;;;;;1.80;1.00;;;;;;;;;;6092709;29;20127;-81
2021/07/05 15:36:00;;;;;;;1.10;0.93;;;;;;;;;;6080466;29;20192;-77
2021/07/05 15:39:04;;;;;;;3.47;1.30;;;;;;;;;;6092751;29;20248;-77
2021/07/05 15:42:06;;;;;;;2.88;1.15;;;;;;;;;;6097708;29;20146;-76
2021/07/05 15:45:09;;;;;;;3.20;1.17;;;;;;;;;;6098865;29;20441;-77
2021/07/05 15:48:10;;;;;;;1.48;1.17;;;;;;;;;;6102365;29;20208;-76
2021/07/05 15:51:12;;;;;;;2.15;1.60;;;;;;;;;;6096113;29;20157;-80
2021/07/05 15:54:15;;;;;;;2.92;1.38;;;;;;;;;;6102213;29;20147;-76
2021/07/05 15:57:17;;;;;;;1.50;1.30;;;;;;;;;;6094607;29;20056;-77
2021/07/05 16:00:20;;;;;;;1.15;1.05;;;;;;;;;;6090915;29;20091;-79
2021/07/05 16:03:23;;;;;;;1.10;1.00;;;;;;;;;;6087245;29;20049;-78
2021/07/05 16:06:25;;;;;;;6.90;1.65;;;;;;;;;;6093433;29;20497;-78
2021/07/05 16:09:28;;;;;;;1.48;1.20;;;;;;;;;;6095071;29;20056;-76
2021/07/05 16:12:29;;;;;;;;;;;;;;;;;;6090155;29;20052;-76
2021/07/05 16:15:30;;;;;;;2.03;1.20;;;;;;;;;;6092272;29;20115;-79
2021/07/05 16:18:32;;;;;;;1.85;1.10;;;;;;;;;;6089053;29;20151;-78
2021/07/05 16:21:34;;;;;;;2.33;1.05;;;;;;;;;;6096245;29;20101;-77
2021/07/05 16:24:37;;;;;;;4.63;1.17;;;;;;;;;;6095723;29;20107;-79
2021/07/05 16:27:38;;;;;;;;;;;;;;;;;;6093836;29;20494;-77
2021/07/05 16:30:41;;;;;;;1.48;1.02;;;;;;;;;;6088650;29;20395;-76
2021/07/05 16:33:43;;;;;;;4.88;1.17;;;;;;;;;;6089542;29;20131;-79
2021/07/05 16:36:44;;;;;;;1.45;1.10;;;;;;;;;;6099453;29;20122;-76
2021/07/05 16:39:48;;;;;;;2.00;1.10;;;;;;;;;;6100577;29;20067;-76
2021/07/05 16:42:50;;;;;;;1.45;1.00;;;;;;;;;;6100945;29;20257;-76
2021/07/05 16:45:52;;;;;;;1.75;1.40;;;;;;;;;;6087916;29;20094;-76
2021/07/05 16:48:53;;;;;;;2.00;1.05;;;;;;;;;;6102037;29;20052;-77
2021/07/05 16:52:12;;;;;;;1.20;1.10;;;;;;;;;;6092481;29;20200;-78
2021/07/05 16:55:18;;;;;;;2.33;1.48;;;;;;;;;;6101622;29;20044;-81
2021/07/05 16:58:19;;;;;;;3.63;1.50;;;;;;;;;;6105227;29;20066;-76
2021/07/05 17:01:22;;;;;;;4.35;1.38;;;;;;;;;;6095003;29;20055;-76
2021/07/05 17:04:24;;;;;;;;;;;;;;;;;;6102936;29;20056;-77
2021/07/05 17:07:25;;;;;;;4.50;1.20;;;;;;;;;;6096420;29;19971;-83
2021/07/05 17:10:29;;;;;;;2.50;1.10;;;;;;;;;;6100136;29;20085;-78
2021/07/05 17:13:31;;;;;;;4.03;1.20;;;;;;;;;;6103361;29;20192;-78
2021/07/05 17:16:33;;;;;;;2.45;1.10;;;;;;;;;;6100818;29;20147;-85
2021/07/05 17:19:35;;;;;;;1.65;1.02;;;;;;;;;;6100590;29;20140;-77
2021/07/05 17:22:37;;;;;;;1.10;0.90;;;;;;;;;;6096144;29;20051;-76
2021/07/05 17:25:40;;;;;;;3.08;1.08;;;;;;;;;;6101130;29;20048;-77
2021/07/05 17:28:41;;;;;;;;;;;;;;;;;;6103306;29;20080;-77
2021/07/05 17:31:43;;;;;;;2.85;1.10;;;;;;;;;;6097449;29;19991;-79
2021/07/05 17:34:45;;;;;;;3.83;1.10;;;;;;;;;;6096926;29;20192;-79
2021/07/05 17:37:47;;;;;;;3.53;1.10;;;;;;;;;;6103574;29;20052;-77
2021/07/05 17:40:51;;;;;;;1.65;1.00;;;;;;;;;;6097843;29;20183;-76
2021/07/05 17:43:52;;;;;;;3.97;1.38;;;;;;;;;;6112657;29;20076;-76
2021/07/05 17:46:54;;;;;;;2.40;1.08;;;;;;;;;;6090730;29;20139;-78
2021/07/05 17:49:56;;;;;;;2.67;1.15;;;;;;;;;;6097453;29;20048;-81
2021/07/05 17:52:58;;;;;;;2.45;0.90;;;;;;;;;;6094904;29;20134;-81
2021/07/05 17:56:01;;;;;;;3.53;1.20;;;;;;;;;;6095434;29;20103;-77
2021/07/05 17:59:03;;;;;;;;;;;;;;;;;;6102073;29;20134;-78
2021/07/05 18:02:05;;;;;;;2.20;1.20;;;;;;;;;;6098321;29;20050;-76
2021/07/05 18:05:10;;;;;;;1.45;1.10;;;;;;;;;;6090009;29;20208;-79
2021/07/05 18:08:12;;;;;;;3.90;1.10;;;;;;;;;;6095184;29;20539;-73
2021/07/05 18:11:16;;;;;;;1.38;0.98;;;;;;;;;;6095100;29;20512;-73
2021/07/05 18:14:18;;;;;;;2.33;1.00;;;;;;;;;;6093023;29;20048;-74
2021/07/05 18:17:19;;;;;;;1.50;0.93;;;;;;;;;;6082026;29;20147;-75
2021/07/05 18:20:22;;;;;;;1.20;0.95;;;;;;;;;;6088578;29;20056;-76
2021/07/05 18:23:23;;;;;;;4.28;0.98;;;;;;;;;;6085937;29;20111;-76